Time;durP1;ratioP1;P1;durP2;ratioP2;P2;SDS_P1;SDS_P2;PMS_P1;PMS_P2;Temp;Humidity;BMP_temperature;BMP_pressure;BME280_temperature;BME280_humidity;BME280_pressure;Samples;Min_cycle;Max_cycle;Signal;HPM_P1;HPM_P2
2021/10/02 00:46:25;;;;;;;8.38;3.90;;;;;;;10.18;97.63;98811.00;5033777;28;20040;-74
2021/10/02 00:48:51;;;;;;;7.88;4.40;;;;;;;10.23;97.34;98810.41;5033751;28;20030;-72
2021/10/02 00:51:19;;;;;;;10.85;4.53;;;;;;;10.22;97.21;98809.59;5031960;28;20428;-72
2021/10/02 00:53:44;;;;;;;7.70;4.20;;;;;;;10.19;96.85;98804.59;5031972;28;20021;-72
2021/10/02 00:56:11;;;;;;;7.75;4.63;;;;;;;10.34;96.55;98800.94;5033104;28;20037;-72
2021/10/02 00:58:36;;;;;;;10.13;5.13;;;;;;;10.30;97.13;98804.03;5032095;28;20032;-72
2021/10/02 01:01:03;;;;;;;8.45;4.88;;;;;;;10.30;97.68;98795.94;5031218;28;20041;-72
2021/10/02 01:03:35;;;;;;;8.73;5.22;;;;;;;10.35;98.15;98805.28;5032240;28;20091;-72
2021/10/02 01:06:45;;;;;;;8.15;4.50;;;;;;;10.46;97.66;98810.13;5032799;28;20038;-72
2021/10/02 01:09:46;;;;;;;8.80;4.35;;;;;;;10.47;96.40;98806.38;5023215;28;20025;-72
2021/10/02 01:12:28;;;;;;;10.00;3.95;;;;;;;10.36;95.07;98788.88;5008776;28;20042;-69
2021/10/02 01:15:03;;;;;;;8.32;4.00;;;;;;;10.31;94.64;98781.34;5020890;28;20086;-72
2021/10/02 01:17:41;;;;;;;6.55;3.70;;;;;;;10.36;94.58;98785.34;5028559;28;20033;-71
2021/10/02 01:20:20;;;;;;;7.55;3.70;;;;;;;10.38;94.59;98807.59;5016379;28;20029;-71
2021/10/02 01:23:00;;;;;;;7.28;3.97;;;;;;;10.33;94.25;98805.50;5030635;28;20017;-71
2021/10/02 01:25:32;;;;;;;10.15;4.45;;;;;;;10.42;94.51;98815.09;5021151;28;20518;-71
2021/10/02 01:28:19;;;;;;;7.40;4.05;;;;;;;10.49;94.07;98815.13;5031510;28;20132;-72
2021/10/02 01:30:59;;;;;;;7.65;4.43;;;;;;;10.41;95.38;98807.19;5032425;28;20083;-71
2021/10/02 01:33:38;;;;;;;9.52;4.57;;;;;;;10.40;96.03;98806.38;5032107;28;20071;-71
2021/10/02 01:36:24;;;;;;;;;;;;;;;10.35;96.37;98803.44;5030206;28;20033;-71
2021/10/02 01:47:15;;;;;;;8.10;4.60;;;;;;;10.51;95.03;98769.78;5031394;28;20035;-71
2021/10/02 01:49:45;;;;;;;8.10;4.57;;;;;;;10.46;95.67;98766.84;5031375;28;20026;-71
2021/10/02 01:52:12;;;;;;;;;;;;;;;10.48;96.15;98778.31;5031041;28;20375;-71
2021/10/02 01:54:40;;;;;;;7.47;4.10;;;;;;;10.43;96.65;98789.72;5031608;28;19995;-71
2021/10/02 01:57:06;;;;;;;8.13;4.17;;;;;;;10.25;96.88;98765.09;5031868;28;20025;-71
2021/10/02 01:59:33;;;;;;;8.20;4.65;;;;;;;10.29;97.21;98778.00;5032659;28;20040;-71
2021/10/02 02:02:01;;;;;;;11.13;4.57;;;;;;;10.08;97.54;98772.69;5030811;28;20025;-71
2021/10/02 02:04:29;;;;;;;6.85;4.57;;;;;;;10.20;98.26;98781.91;5031679;28;20053;-71
2021/10/02 02:06:57;;;;;;;8.30;4.78;;;;;;;10.26;98.86;98782.97;5028109;28;20029;-71
2021/10/02 02:09:25;;;;;;;8.60;5.05;;;;;;;10.43;98.21;98778.91;5031724;28;20021;-71
2021/10/02 02:11:51;;;;;;;8.07;4.60;;;;;;;10.37;97.81;98754.53;5033470;28;20021;-71
2021/10/02 02:14:17;;;;;;;11.35;5.53;;;;;;;10.28;97.89;98745.78;5034680;28;20032;-71
2021/10/02 02:16:44;;;;;;;8.50;5.35;;;;;;;10.59;97.50;98766.06;5034969;28;20092;-71
2021/10/02 02:19:10;;;;;;;7.65;4.85;;;;;;;10.45;97.59;98754.34;5033076;28;20060;-72
2021/10/02 02:21:36;;;;;;;8.88;5.05;;;;;;;10.50;97.50;98760.81;5035760;28;20398;-72
2021/10/02 02:24:01;;;;;;;8.50;5.00;;;;;;;10.51;97.50;98753.56;5030636;28;20022;-72
2021/10/02 02:26:27;;;;;;;9.02;4.65;;;;;;;10.44;97.50;98752.69;5023193;28;20049;-72
2021/10/02 02:28:53;;;;;;;10.30;5.35;;;;;;;10.63;97.01;98773.53;5034418;28;20049;-71
2021/10/02 02:31:18;;;;;;;10.93;5.30;;;;;;;10.61;97.54;98758.56;5029404;28;20068;-70
2021/10/02 02:33:44;;;;;;;10.10;5.53;;;;;;;10.41;97.80;98731.47;5034013;28;20022;-70
2021/10/02 02:36:10;;;;;;;12.13;5.82;;;;;;;10.44;98.24;98741.88;5033941;28;20040;-70
2021/10/02 02:38:35;;;;;;;7.80;4.70;;;;;;;10.52;98.05;98750.63;5034768;28;20026;-71
2021/10/02 02:41:01;;;;;;;9.73;5.47;;;;;;;10.41;97.96;98726.06;5034042;28;20030;-70
2021/10/02 02:43:32;;;;;;;8.60;5.03;;;;;;;10.48;97.44;98743.97;5036004;28;20045;-70
2021/10/02 02:46:06;;;;;;;9.13;4.85;;;;;;;10.61;97.55;98763.97;5034472;28;20033;-70
2021/10/02 02:48:39;;;;;;;9.07;4.85;;;;;;;10.64;96.74;98775.22;5021561;28;20033;-70
2021/10/02 02:51:17;;;;;;;8.82;4.72;;;;;;;10.56;96.73;98755.63;5031935;28;20642;-70
2021/10/02 02:54:00;;;;;;;10.52;5.13;;;;;;;10.43;97.08;98761.88;5029892;28;20042;-70
2021/10/02 02:56:43;;;;;;;11.30;5.32;;;;;;;10.43;97.52;98748.34;5033944;28;20018;-71
2021/10/02 02:59:15;;;;;;;10.80;5.05;;;;;;;10.49;96.90;98763.75;5033572;28;20021;-70
2021/10/02 03:01:43;;;;;;;11.13;5.22;;;;;;;10.30;97.08;98724.78;5032980;28;20032;-70
2021/10/02 03:04:15;;;;;;;11.10;5.00;;;;;;;10.27;98.21;98707.09;5032719;28;20019;-70
2021/10/02 03:06:50;;;;;;;10.68;5.40;;;;;;;10.40;97.13;98725.22;5033869;28;20036;-70
2021/10/02 03:09:16;;;;;;;8.13;5.40;;;;;;;10.47;98.23;98744.16;5037116;28;20026;-70
2021/10/02 03:11:45;;;;;;;14.27;5.60;;;;;;;10.63;97.97;98745.66;5034712;28;20036;-70
2021/10/02 03:14:11;;;;;;;9.80;5.80;;;;;;;10.37;97.27;98727.50;5032648;28;20027;-70
2021/10/02 03:16:37;;;;;;;11.85;5.57;;;;;;;10.27;98.28;98722.44;5034388;28;20175;-71
2021/10/02 03:19:05;;;;;;;11.02;5.85;;;;;;;10.39;98.39;98737.06;5033723;28;20107;-70
2021/10/02 03:21:31;;;;;;;9.65;5.50;;;;;;;10.44;98.70;98750.00;5034639;28;20038;-70
2021/10/02 03:23:57;;;;;;;8.30;5.43;;;;;;;10.42;98.71;98750.19;5034331;28;20366;-71
2021/10/02 03:26:23;;;;;;;9.30;5.75;;;;;;;10.51;98.12;98748.16;5025507;28;20021;-71
2021/10/02 03:28:50;;;;;;;9.32;5.68;;;;;;;10.30;98.19;98725.63;5025253;28;20041;-70
2021/10/02 03:31:17;;;;;;;11.05;5.65;;;;;;;10.59;98.23;98747.13;5028157;28;20022;-70
2021/10/02 03:33:43;;;;;;;8.88;5.10;;;;;;;10.45;98.08;98722.75;5034136;28;20029;-69
2021/10/02 03:36:09;;;;;;;8.45;4.72;;;;;;;10.51;98.36;98734.63;5034534;28;20041;-70
2021/10/02 03:38:36;;;;;;;11.38;5.20;;;;;;;10.51;98.54;98731.91;5033595;28;20026;-70
2021/10/02 03:41:03;;;;;;;10.20;5.38;;;;;;;10.41;97.95;98723.38;5034292;28;20172;-70
2021/10/02 03:43:30;;;;;;;8.73;4.97;;;;;;;10.51;98.08;98745.44;5034540;28;20049;-70
2021/10/02 03:45:56;;;;;;;11.98;5.15;;;;;;;10.26;98.37;98713.50;5032043;28;20486;-70
2021/10/02 03:48:22;;;;;;;9.38;4.93;;;;;;;10.28;98.08;98716.03;5033537;28;20048;-69
2021/10/02 03:50:47;;;;;;;9.73;5.10;;;;;;;10.47;98.28;98749.56;5034143;28;20053;-70
2021/10/02 03:53:13;;;;;;;6.47;4.45;;;;;;;10.49;98.30;98752.91;5032607;28;20474;-69
2021/10/02 03:55:38;;;;;;;7.93;4.80;;;;;;;10.29;98.32;98729.34;5032952;28;20057;-70
2021/10/02 03:58:03;;;;;;;8.35;5.07;;;;;;;10.25;98.57;98722.66;5032150;28;20151;-70
2021/10/02 04:00:29;;;;;;;8.93;4.90;;;;;;;10.23;98.48;98730.13;5034077;28;20502;-70
2021/10/02 04:02:54;;;;;;;8.88;4.72;;;;;;;10.37;98.38;98752.66;5032078;28;20021;-71
2021/10/02 04:05:19;;;;;;;8.23;5.40;;;;;;;10.25;98.73;98749.69;5032048;28;20032;-70
2021/10/02 04:07:45;;;;;;;8.30;4.97;;;;;;;10.16;98.69;98728.44;5034151;28;20026;-70
2021/10/02 04:10:12;;;;;;;9.55;5.18;;;;;;;10.27;98.46;98727.84;5029126;28;20088;-70
2021/10/02 04:12:38;;;;;;;10.00;5.20;;;;;;;10.19;99.31;98731.59;5033629;28;20116;-70
2021/10/02 04:15:03;;;;;;;8.68;5.45;;;;;;;10.17;99.19;98725.53;5033661;28;20064;-70
2021/10/02 04:17:29;;;;;;;9.70;5.28;;;;;;;10.37;99.14;98738.31;5033275;28;20037;-70
2021/10/02 04:19:54;;;;;;;7.68;4.57;;;;;;;10.29;98.09;98718.53;5033035;28;20083;-71
2021/10/02 04:22:19;;;;;;;10.18;5.68;;;;;;;10.26;98.95;98735.13;5032958;28;20030;-70
2021/10/02 04:24:45;;;;;;;10.70;4.95;;;;;;;10.40;99.39;98754.13;5030728;28;20037;-74
2021/10/02 04:27:10;;;;;;;9.00;4.75;;;;;;;10.43;99.45;98751.88;5031330;28;20032;-68
2021/10/02 04:29:36;;;;;;;8.45;4.60;;;;;;;10.34;99.31;98747.66;5032683;28;20072;-74
2021/10/02 04:32:02;;;;;;;9.40;4.57;;;;;;;10.34;99.43;98752.25;5032487;28;20120;-75
2021/10/02 04:34:29;;;;;;;7.47;4.50;;;;;;;10.15;100.00;98732.19;5032123;28;20085;-78
2021/10/02 04:36:54;;;;;;;9.02;4.43;;;;;;;10.28;100.00;98749.31;5031312;28;20068;-70
2021/10/02 04:39:19;;;;;;;9.02;4.82;;;;;;;10.34;100.00;98753.06;5032784;28;20053;-72
2021/10/02 04:41:45;;;;;;;9.05;5.30;;;;;;;10.28;100.00;98745.78;5033131;28;20037;-73
2021/10/02 04:44:10;;;;;;;8.98;5.03;;;;;;;10.30;100.00;98751.84;5033599;28;20021;-72
2021/10/02 04:46:35;;;;;;;7.13;4.68;;;;;;;10.14;100.00;98739.47;5034847;28;20025;-78
2021/10/02 04:49:01;;;;;;;7.10;4.80;;;;;;;10.02;100.00;98720.28;5033811;28;20021;-79
2021/10/02 04:51:26;;;;;;;10.10;5.25;;;;;;;10.18;100.00;98770.47;5033730;28;20029;-79
2021/10/02 04:53:52;;;;;;;8.15;4.95;;;;;;;10.12;100.00;98746.94;5034140;28;20045;-78
2021/10/02 04:56:19;;;;;;;9.57;5.50;;;;;;;10.17;100.00;98751.75;5037839;28;20046;-78
2021/10/02 04:58:45;;;;;;;13.85;5.40;;;;;;;10.21;100.00;98763.81;5039132;28;20021;-78
2021/10/02 05:01:12;;;;;;;8.63;5.13;;;;;;;10.15;100.00;98751.94;5040981;28;20053;-76
2021/10/02 05:03:40;;;;;;;8.70;5.35;;;;;;;10.06;100.00;98739.63;5042933;28;20030;-70
2021/10/02 05:06:08;;;;;;;10.27;5.50;;;;;;;9.92;100.00;98732.50;5029334;28;20414;-79
2021/10/02 05:08:36;;;;;;;13.93;4.85;;;;;;;10.04;100.00;98737.13;5029914;28;20075;-79
2021/10/02 05:11:03;;;;;;;9.57;5.35;;;;;;;9.99;100.00;98742.31;5031821;28;20057;-80
2021/10/02 05:13:30;;;;;;;8.73;5.30;;;;;;;9.84;100.00;98739.72;5032440;28;20071;-80
2021/10/02 05:15:56;;;;;;;7.72;4.70;;;;;;;9.96;100.00;98760.81;5029203;28;20026;-75
2021/10/02 05:18:21;;;;;;;10.65;5.00;;;;;;;9.70;100.00;98729.06;5031952;28;20021;-75
2021/10/02 05:20:46;;;;;;;10.15;4.40;;;;;;;9.75;100.00;98732.00;5032564;28;20078;-74
2021/10/02 05:23:12;;;;;;;9.10;5.32;;;;;;;9.85;100.00;98754.94;5032142;28;20026;-74
2021/10/02 05:25:38;;;;;;;10.27;4.80;;;;;;;9.78;100.00;98745.13;5031405;28;20116;-69
2021/10/02 05:28:03;;;;;;;9.93;5.60;;;;;;;9.88;100.00;98746.41;5031406;28;20504;-68
2021/10/02 05:30:29;;;;;;;9.55;5.68;;;;;;;9.91;100.00;98736.25;5031035;28;20048;-72
2021/10/02 05:32:54;;;;;;;17.17;5.45;;;;;;;9.86;100.00;98734.16;5029128;28;20146;-76
2021/10/02 05:35:20;;;;;;;13.45;5.43;;;;;;;10.00;100.00;98721.50;5030227;28;20068;-76
2021/10/02 05:37:46;;;;;;;8.63;5.15;;;;;;;10.01;100.00;98718.63;5030693;28;20025;-70
2021/10/02 05:40:12;;;;;;;14.20;5.30;;;;;;;10.03;100.00;98708.44;5029484;28;20475;-69
2021/10/02 05:42:37;;;;;;;9.55;4.97;;;;;;;10.06;100.00;98691.81;5031981;28;20033;-70
2021/10/02 05:45:03;;;;;;;11.15;5.18;;;;;;;10.35;100.00;98707.94;5031558;28;20395;-70
2021/10/02 05:47:28;;;;;;;9.23;5.45;;;;;;;10.36;100.00;98679.88;5032865;28;20041;-70
2021/10/02 05:49:54;;;;;;;7.72;4.60;;;;;;;10.70;100.00;98704.06;5035553;28;20036;-70
2021/10/02 05:52:19;;;;;;;12.95;4.10;;;;;;;10.86;99.16;98669.50;5025313;28;20048;-70
2021/10/02 05:54:44;;;;;;;9.98;4.60;;;;;;;11.61;96.09;98697.94;5023951;28;20030;-68
2021/10/02 05:57:10;;;;;;;8.55;4.22;;;;;;;13.27;87.89;98709.75;5033447;28;20394;-71
2021/10/02 05:59:35;;;;;;;10.80;4.65;;;;;;;15.41;74.61;98708.59;5035687;28;20515;-70
2021/10/02 06:02:01;;;;;;;5.65;3.85;;;;;;;16.67;66.93;98686.09;5036740;28;20032;-70
2021/10/02 06:04:26;;;;;;;7.97;3.42;;;;;;;17.88;60.71;98692.94;5036179;28;20032;-70
2021/10/02 06:06:51;;;;;;;9.30;3.30;;;;;;;18.71;57.61;98679.09;5038293;28;20037;-70
2021/10/02 06:09:17;;;;;;;6.13;3.28;;;;;;;18.98;57.33;98701.84;5035768;28;20044;-70
2021/10/02 06:11:43;;;;;;;5.35;3.40;;;;;;;17.47;61.82;98714.22;5024437;28;20021;-69
2021/10/02 06:14:08;;;;;;;6.53;3.78;;;;;;;16.04;65.66;98714.38;5024557;28;20026;-69
2021/10/02 06:16:38;;;;;;;5.50;3.30;;;;;;;15.55;68.92;98720.91;5022307;28;20088;-71
2021/10/02 06:19:04;;;;;;;7.93;4.00;;;;;;;14.86;71.38;98690.63;5030195;28;20025;-69
2021/10/02 06:21:29;;;;;;;6.28;4.00;;;;;;;14.36;72.68;98706.44;5026537;28;20017;-70
2021/10/02 06:23:59;;;;;;;6.03;3.80;;;;;;;13.69;76.81;98712.66;5023387;28;20029;-70
2021/10/02 06:26:26;;;;;;;9.85;4.55;;;;;;;13.31;80.00;98723.75;5025213;28;20455;-71
2021/10/02 06:28:51;;;;;;;5.53;4.03;;;;;;;13.00;82.22;98724.59;5025223;28;20026;-69
2021/10/02 06:31:16;;;;;;;14.68;7.43;;;;;;;12.78;83.38;98726.81;5021226;28;20017;-69
2021/10/02 06:33:42;;;;;;;31.05;14.50;;;;;;;12.72;84.03;98723.94;5028798;28;20065;-70
2021/10/02 06:36:07;;;;;;;21.10;10.02;;;;;;;12.71;84.44;98726.88;5027667;28;20398;-69
2021/10/02 06:38:32;;;;;;;18.58;8.73;;;;;;;12.73;85.89;98719.34;5030227;28;20480;-69
2021/10/02 06:40:58;;;;;;;14.25;8.27;;;;;;;12.74;84.56;98723.72;5031331;28;20029;-69
2021/10/02 06:43:23;;;;;;;14.35;7.40;;;;;;;12.62;85.81;98722.75;5029558;28;20493;-69
2021/10/02 06:45:52;;;;;;;12.18;7.20;;;;;;;12.79;85.41;98720.38;5033944;28;20053;-68
2021/10/02 06:48:17;;;;;;;12.93;6.97;;;;;;;12.92;83.90;98704.78;5028614;28;20048;-70
2021/10/02 06:50:43;;;;;;;12.23;7.03;;;;;;;13.08;84.23;98716.16;5031961;28;20038;-73
2021/10/02 06:53:08;;;;;;;17.60;8.40;;;;;;;13.28;82.26;98716.88;5038305;28;20040;-77
2021/10/02 06:55:33;;;;;;;15.02;7.88;;;;;;;13.42;81.86;98711.31;5037445;28;20483;-72
2021/10/02 06:57:59;;;;;;;14.55;7.70;;;;;;;13.56;81.11;98712.81;5036466;28;20497;-73
2021/10/02 07:00:24;;;;;;;13.07;6.68;;;;;;;13.93;78.99;98718.28;5037561;28;20036;-70
2021/10/02 07:02:49;;;;;;;13.32;6.90;;;;;;;14.11;78.52;98710.09;5036736;28;20033;-76
2021/10/02 07:05:15;;;;;;;13.85;7.05;;;;;;;14.59;76.13;98711.16;5030984;28;20449;-75
2021/10/02 07:07:41;;;;;;;13.27;6.20;;;;;;;15.10;74.29;98691.50;5035418;28;20056;-76
2021/10/02 07:10:08;;;;;;;14.50;6.65;;;;;;;16.14;71.48;98709.13;5036152;28;20557;-75
2021/10/02 07:12:35;;;;;;;18.48;8.50;;;;;;;16.82;67.91;98708.25;5032970;28;20033;-75
2021/10/02 07:15:01;;;;;;;20.83;8.88;;;;;;;17.27;64.86;98680.03;5034469;28;20029;-77
2021/10/02 07:17:26;;;;;;;18.35;9.27;;;;;;;17.69;63.39;98714.28;5025278;28;20159;-77
2021/10/02 07:19:51;;;;;;;15.23;7.97;;;;;;;17.74;62.69;98703.41;5032589;28;20076;-76
2021/10/02 07:22:17;;;;;;;12.95;6.70;;;;;;;17.92;61.58;98688.59;5033664;28;20030;-78
2021/10/02 07:24:43;;;;;;;11.48;6.70;;;;;;;18.50;59.74;98700.00;5032754;28;20021;-74
2021/10/02 07:27:08;;;;;;;10.57;5.80;;;;;;;18.73;59.21;98712.53;5033769;28;20026;-74
2021/10/02 07:29:34;;;;;;;12.35;5.80;;;;;;;19.05;58.06;98718.09;5033890;28;20108;-74
2021/10/02 07:31:59;;;;;;;11.25;5.18;;;;;;;19.03;57.89;98688.19;5032508;28;20531;-75
2021/10/02 07:34:24;;;;;;;10.05;5.47;;;;;;;19.69;56.74;98711.75;5033433;28;20048;-75
2021/10/02 07:36:50;;;;;;;11.85;5.70;;;;;;;19.65;56.95;98692.22;5033521;28;20053;-75
2021/10/02 07:39:15;;;;;;;11.00;5.18;;;;;;;19.44;56.32;98704.13;5029212;28;20466;-67
2021/10/02 07:41:44;;;;;;;9.63;5.22;;;;;;;18.97;57.84;98705.69;5027510;28;20021;-74
2021/10/02 07:44:11;;;;;;;10.53;4.53;;;;;;;18.93;58.08;98710.03;5027898;28;20510;-70
2021/10/02 07:46:42;;;;;;;8.88;5.15;;;;;;;19.24;56.70;98702.91;5034685;28;20021;-78
2021/10/02 07:49:10;;;;;;;7.38;4.80;;;;;;;20.84;53.45;98683.34;5031866;28;20083;-75
2021/10/02 07:51:35;;;;;;;8.90;4.88;;;;;;;22.93;48.71;98694.88;5040181;28;20033;-75
2021/10/02 07:54:03;;;;;;;10.60;5.13;;;;;;;24.45;43.90;98674.31;5026753;28;20116;-75
2021/10/02 07:56:29;;;;;;;7.70;4.90;;;;;;;25.71;41.81;98657.88;5027925;28;20075;-72
2021/10/02 07:58:55;;;;;;;7.20;4.57;;;;;;;26.13;40.77;98690.06;5031482;28;20175;-73
2021/10/02 08:01:22;;;;;;;6.03;4.10;;;;;;;27.52;39.15;98690.50;5032469;28;20139;-75
2021/10/02 08:03:49;;;;;;;10.73;4.72;;;;;;;27.11;38.19;98689.53;5033229;28;20013;-72
2021/10/02 08:06:16;;;;;;;8.32;4.20;;;;;;;27.19;38.21;98685.22;5032604;28;20079;-75
2021/10/02 08:08:42;;;;;;;9.02;4.00;;;;;;;27.65;36.58;98663.75;5026806;28;20187;-75
2021/10/02 08:11:07;;;;;;;14.40;4.18;;;;;;;27.12;37.11;98676.50;5040276;28;19997;-76
2021/10/02 08:13:34;;;;;;;7.35;3.25;;;;;;;28.12;36.80;98678.88;5038147;28;20036;-76
2021/10/02 08:16:01;;;;;;;6.88;3.95;;;;;;;28.26;35.46;98681.50;5031611;28;20367;-76
2021/10/02 08:18:29;;;;;;;7.70;3.50;;;;;;;28.41;35.26;98667.16;5032063;28;20049;-79
2021/10/02 08:20:55;;;;;;;5.32;3.38;;;;;;;28.54;35.59;98675.72;5034256;28;20026;-78
2021/10/02 08:23:24;;;;;;;8.88;3.33;;;;;;;27.15;37.69;98677.81;5032489;28;20109;-77
2021/10/02 08:25:51;;;;;;;6.47;3.20;;;;;;;28.99;34.58;98686.56;5031625;28;20093;-77
2021/10/02 08:28:18;;;;;;;5.68;2.72;;;;;;;29.77;33.13;98677.28;5031807;28;20104;-77
2021/10/02 08:30:45;;;;;;;9.48;3.10;;;;;;;28.59;34.76;98668.03;5028609;28;20083;-77
2021/10/02 08:33:11;;;;;;;6.15;2.90;;;;;;;27.98;35.35;98658.69;5030987;28;20475;-77
2021/10/02 08:35:41;;;;;;;5.88;3.15;;;;;;;28.25;34.94;98685.44;5027552;28;20036;-77
2021/10/02 08:38:07;;;;;;;5.88;2.88;;;;;;;28.07;35.24;98684.56;5022557;28;20033;-76
2021/10/02 08:40:33;;;;;;;5.38;2.78;;;;;;;28.08;35.01;98686.19;5027027;28;20044;-73
2021/10/02 08:42:59;;;;;;;5.22;2.80;;;;;;;28.23;34.72;98670.22;5026299;28;20025;-70
2021/10/02 08:45:31;;;;;;;5.47;3.08;;;;;;;27.91;35.83;98675.03;5032357;28;20091;-72
2021/10/02 08:47:58;;;;;;;6.57;3.47;;;;;;;28.62;34.63;98667.38;5024464;28;20474;-72
2021/10/02 08:50:25;;;;;;;7.88;3.35;;;;;;;28.77;33.82;98662.47;5028276;28;20033;-67
2021/10/02 08:52:52;;;;;;;6.10;3.20;;;;;;;29.67;32.30;98656.16;5021559;28;20030;-79
2021/10/02 08:55:18;;;;;;;6.28;3.30;;;;;;;28.79;33.00;98671.31;5030096;28;20456;-73
2021/10/02 08:57:44;;;;;;;4.43;3.00;;;;;;;28.87;32.58;98664.91;5030504;28;20112;-75
2021/10/02 09:00:13;;;;;;;4.22;2.60;;;;;;;28.07;32.86;98673.44;5022166;28;20025;-80
2021/10/02 09:02:39;;;;;;;7.68;2.92;;;;;;;27.85;33.02;98652.13;5032376;28;20108;-75
2021/10/02 09:05:07;;;;;;;3.47;2.25;;;;;;;28.39;31.82;98647.16;5029546;28;20060;-69
2021/10/02 09:07:32;;;;;;;5.50;1.80;;;;;;;28.31;30.31;98633.25;5022487;28;20026;-72
2021/10/02 09:10:01;;;;;;;6.45;1.98;;;;;;;27.61;32.17;98626.63;5028249;28;20710;-69
2021/10/02 09:12:27;;;;;;;3.78;2.33;;;;;;;28.84;30.75;98632.16;5028116;28;20082;-71
2021/10/02 09:14:53;;;;;;;3.63;2.17;;;;;;;28.19;30.55;98642.22;5030317;28;20025;-72
2021/10/02 09:17:20;;;;;;;6.85;2.50;;;;;;;28.05;31.12;98634.00;5030330;28;20621;-73
2021/10/02 09:19:46;;;;;;;3.88;2.22;;;;;;;28.42;30.43;98609.53;5030375;28;20025;-75
2021/10/02 09:22:13;;;;;;;3.72;2.20;;;;;;;28.69;30.78;98629.88;5026213;28;20045;-76
2021/10/02 09:24:44;;;;;;;5.30;2.70;;;;;;;28.26;31.31;98623.09;5031153;28;20030;-73
2021/10/02 09:27:30;;;;;;;4.10;2.60;;;;;;;29.08;30.74;98616.94;5030624;28;20404;-74
2021/10/02 09:30:03;;;;;;;4.30;2.70;;;;;;;27.51;32.31;98616.63;5030866;28;20100;-72
2021/10/02 09:32:33;;;;;;;4.30;2.25;;;;;;;26.76;33.30;98598.81;5028957;28;20053;-70
2021/10/02 09:35:02;;;;;;;3.63;2.40;;;;;;;27.99;31.72;98604.72;5031454;28;20030;-70
2021/10/02 09:37:30;;;;;;;6.22;2.78;;;;;;;28.80;31.24;98595.00;5029847;28;20056;-70
2021/10/02 09:40:08;;;;;;;4.50;2.35;;;;;;;28.88;29.72;98604.50;5027717;28;20033;-70
2021/10/02 09:42:37;;;;;;;2.90;1.80;;;;;;;30.40;27.80;98608.53;5021552;28;20032;-70
2021/10/02 09:45:05;;;;;;;;;;;;;;;30.06;27.69;98598.38;5030751;28;20106;-70
2021/10/02 09:47:31;;;;;;;4.22;1.80;;;;;;;30.64;27.82;98588.31;5030963;28;19921;-70
2021/10/02 09:49:56;;;;;;;3.13;1.80;;;;;;;30.30;26.77;98601.38;5030411;28;20037;-71
2021/10/02 09:52:30;;;;;;;5.13;1.83;;;;;;;30.32;27.27;98595.47;5028878;28;20060;-71
2021/10/02 09:54:56;;;;;;;4.57;1.77;;;;;;;30.46;26.66;98584.00;5026150;28;20104;-71
2021/10/02 09:57:23;;;;;;;3.03;1.75;;;;;;;30.42;27.16;98574.69;5026836;28;20029;-69
2021/10/02 09:59:50;;;;;;;3.38;1.55;;;;;;;30.15;26.72;98565.66;5024897;28;20554;-72
2021/10/02 10:02:18;;;;;;;2.75;1.40;;;;;;;30.18;25.98;98580.91;5024456;28;20099;-68
2021/10/02 10:04:55;;;;;;;3.38;1.45;;;;;;;30.41;25.90;98571.06;5025780;28;20032;-70
2021/10/02 10:07:22;;;;;;;1.67;1.40;;;;;;;29.53;26.79;98574.66;5025571;28;20048;-71
2021/10/02 10:10:12;;;;;;;1.70;1.25;;;;;;;29.26;27.07;98566.41;5025776;28;20105;-72
2021/10/02 10:12:39;;;;;;;3.17;1.60;;;;;;;29.19;26.74;98540.22;5010950;28;20037;-71
2021/10/02 10:15:07;;;;;;;4.10;1.45;;;;;;;30.45;25.82;98551.69;5024905;28;20033;-71
2021/10/02 10:17:32;;;;;;;3.25;1.60;;;;;;;30.82;25.18;98538.72;5027293;28;20037;-72
2021/10/02 10:20:07;;;;;;;2.83;1.70;;;;;;;30.54;26.39;98541.25;5026266;28;20030;-71
2021/10/02 10:22:34;;;;;;;4.30;1.40;;;;;;;31.34;24.78;98538.13;5026127;28;20037;-71
2021/10/02 10:25:07;;;;;;;2.83;1.60;;;;;;;30.07;25.53;98535.84;5027249;28;20099;-72
2021/10/02 10:27:44;;;;;;;1.75;1.42;;;;;;;29.74;26.50;98533.78;5026264;28;20056;-71
2021/10/02 10:30:22;;;;;;;5.45;1.70;;;;;;;30.05;25.80;98515.84;5026902;28;20041;-71
2021/10/02 10:33:05;;;;;;;2.58;1.52;;;;;;;30.87;24.66;98520.94;5014646;28;20029;-75
2021/10/02 10:35:40;;;;;;;2.30;1.30;;;;;;;30.44;25.38;98502.56;5030181;28;20734;-71
2021/10/02 10:38:08;;;;;;;2.45;1.38;;;;;;;30.81;25.24;98509.13;5030361;28;20035;-71
2021/10/02 10:40:34;;;;;;;4.13;1.60;;;;;;;30.50;25.02;98513.22;5029327;28;20025;-71
2021/10/02 10:43:00;;;;;;;2.42;1.45;;;;;;;29.89;26.10;98508.09;5030930;28;20132;-71
2021/10/02 10:45:26;;;;;;;2.78;1.63;;;;;;;30.19;25.57;98510.00;5031321;28;20107;-71
2021/10/02 10:47:52;;;;;;;3.67;1.70;;;;;;;31.53;23.86;98506.84;5030441;28;20474;-71
2021/10/02 10:50:18;;;;;;;4.72;1.63;;;;;;;31.63;24.08;98506.38;5028535;28;20076;-71
2021/10/02 10:52:44;;;;;;;2.53;1.40;;;;;;;32.58;23.64;98505.25;5029150;28;20025;-72
2021/10/02 10:55:19;;;;;;;6.82;1.25;;;;;;;31.88;23.80;98495.94;5025935;28;20465;-72
2021/10/02 10:57:50;;;;;;;2.15;1.30;;;;;;;34.42;21.86;98495.38;5021995;28;20039;-72
2021/10/02 11:00:37;;;;;;;4.85;1.80;;;;;;;33.35;22.89;98497.34;5029321;28;20040;-73
2021/10/02 11:03:07;;;;;;;3.75;1.63;;;;;;;32.11;24.20;98486.25;5028707;28;20080;-73
2021/10/02 11:05:35;;;;;;;4.13;1.67;;;;;;;32.27;23.57;98478.75;5026925;28;20033;-72
2021/10/02 11:08:02;;;;;;;9.15;1.50;;;;;;;31.10;25.19;98483.03;5027969;28;20029;-74
2021/10/02 11:10:45;;;;;;;2.47;1.55;;;;;;;30.70;25.24;98479.97;5027326;28;20045;-72
2021/10/02 11:13:13;;;;;;;2.53;1.77;;;;;;;31.17;25.38;98472.06;5028386;28;20029;-73
2021/10/02 11:15:40;;;;;;;4.47;1.73;;;;;;;31.82;24.88;98457.38;5029932;28;20600;-72
2021/10/02 11:18:25;;;;;;;4.32;1.55;;;;;;;30.58;26.34;98470.41;5029670;28;20147;-72
2021/10/02 11:21:02;;;;;;;3.38;1.70;;;;;;;31.90;25.14;98461.22;5030685;28;20049;-72
2021/10/02 11:23:42;;;;;;;3.83;1.90;;;;;;;31.71;25.26;98459.84;5040860;23;20053;-71
2021/10/02 11:26:24;;;;;;;3.92;1.98;;;;;;;31.76;25.26;98447.63;5030507;28;20406;-71
2021/10/02 11:28:58;;;;;;;7.25;2.10;;;;;;;31.46;25.27;98442.28;5032734;28;20422;-71
2021/10/02 11:31:24;;;;;;;4.28;1.75;;;;;;;30.28;27.21;98443.78;5027514;28;20028;-71
2021/10/02 11:33:54;;;;;;;2.38;1.50;;;;;;;29.43;27.79;98448.47;5027883;28;20113;-71
2021/10/02 11:36:29;;;;;;;2.85;1.40;;;;;;;29.92;26.56;98436.84;5030330;28;20028;-72
2021/10/02 11:39:12;;;;;;;4.82;1.60;;;;;;;30.34;26.53;98431.28;5031454;28;20056;-72
2021/10/02 11:41:49;;;;;;;2.47;1.52;;;;;;;28.69;28.74;98427.47;5033144;28;20075;-70
2021/10/02 11:44:37;;;;;;;3.13;1.50;;;;;;;30.38;26.84;98417.44;5028351;28;20029;-71
2021/10/02 11:47:25;;;;;;;3.37;1.87;;;;;;;30.39;26.90;98416.25;5029809;28;20026;-71
2021/10/02 11:50:12;;;;;;;2.78;1.50;;;;;;;29.34;28.45;98397.53;5027171;28;20248;-71
2021/10/02 11:52:43;;;;;;;4.90;1.70;;;;;;;27.27;31.78;98406.69;5027388;28;20037;-71
2021/10/02 11:55:36;;;;;;;2.47;1.65;;;;;;;26.12;32.21;98405.59;5027495;28;20025;-71
2021/10/02 11:58:08;;;;;;;4.00;1.90;;;;;;;26.71;31.96;98394.38;5032593;28;20068;-71
2021/10/02 12:00:37;;;;;;;5.35;2.08;;;;;;;28.26;29.95;98388.59;5033426;28;20021;-69
2021/10/02 12:03:04;;;;;;;2.72;1.77;;;;;;;29.79;27.52;98377.41;5030466;28;20053;-70
2021/10/02 12:05:30;;;;;;;3.33;1.80;;;;;;;29.59;28.34;98380.97;5030415;28;20047;-71
2021/10/02 12:07:55;;;;;;;3.42;2.13;;;;;;;29.91;28.09;98371.88;5030685;28;20453;-70
2021/10/02 12:10:20;;;;;;;4.80;1.80;;;;;;;30.89;26.63;98367.75;5034893;28;20029;-70
2021/10/02 12:12:46;;;;;;;2.70;2.00;;;;;;;30.52;26.93;98362.94;5034053;28;20025;-72
2021/10/02 12:15:11;;;;;;;3.22;1.75;;;;;;;31.78;25.71;98351.00;5035743;28;20418;-71
2021/10/02 12:17:53;;;;;;;2.78;1.75;;;;;;;31.51;26.00;98346.16;5029277;28;20034;-70
2021/10/02 12:20:18;;;;;;;2.72;1.83;;;;;;;31.71;24.92;98334.00;5027300;28;20053;-72
2021/10/02 12:22:43;;;;;;;3.17;1.63;;;;;;;32.31;24.12;98334.91;5031555;28;20072;-71
2021/10/02 12:25:09;;;;;;;4.07;1.50;;;;;;;31.38;24.95;98325.81;5034899;28;20108;-70
2021/10/02 12:27:36;;;;;;;2.70;1.40;;;;;;;31.23;24.99;98316.97;5032591;28;20108;-71
2021/10/02 12:30:04;;;;;;;3.20;1.90;;;;;;;30.71;25.94;98316.88;5028599;28;20490;-71
2021/10/02 12:32:30;;;;;;;3.50;1.80;;;;;;;29.82;26.75;98311.78;5026877;28;20051;-71